Time;durP1;ratioP1;P1;durP2;ratioP2;P2;SDS_P1;SDS_P2;PMS_P1;PMS_P2;Temp;Humidity;BMP_temperature;BMP_pressure;BME280_temperature;BME280_humidity;BME280_pressure;Samples;Min_cycle;Max_cycle;Signal;HPM_P1;HPM_P2
2022/10/13 00:01:29;;;;;;;27.33;16.20;;;11.00;99.90;;;;;;4973348;28;20387;-64
2022/10/13 00:03:55;;;;;;;29.67;18.95;;;11.00;99.90;;;;;;4968716;28;20089;-62
2022/10/13 00:06:24;;;;;;;22.40;14.20;;;11.00;99.90;;;;;;4954639;28;20144;-66
2022/10/13 00:08:50;;;;;;;22.60;15.75;;;11.00;99.90;;;;;;4966834;28;20706;-63
2022/10/13 00:11:21;;;;;;;26.30;16.15;;;11.00;99.90;;;;;;4971289;28;20041;-64
2022/10/13 00:13:48;;;;;;;24.67;15.00;;;11.00;99.90;;;;;;4966517;28;20053;-63
2022/10/13 00:16:16;;;;;;;30.70;16.52;;;11.00;99.90;;;;;;4971093;28;20046;-63
2022/10/13 00:18:44;;;;;;;26.17;15.98;;;11.00;99.90;;;;;;4956019;28;20078;-64
2022/10/13 00:21:13;;;;;;;26.65;16.83;;;11.00;99.90;;;;;;4976893;28;20501;-65
2022/10/13 00:23:39;;;;;;;31.85;16.85;;;11.00;99.90;;;;;;4971762;28;21116;-63
2022/10/13 00:26:08;;;;;;;23.33;15.52;;;11.00;99.90;;;;;;4960708;28;20035;-63
2022/10/13 00:28:34;;;;;;;27.38;16.80;;;11.00;99.90;;;;;;4948208;28;20125;-63
2022/10/13 00:31:00;;;;;;;29.80;16.80;;;11.00;99.90;;;;;;4983475;28;20050;-63
2022/10/13 00:33:26;;;;;;;25.45;15.93;;;11.00;99.90;;;;;;4973218;28;20405;-62
2022/10/13 00:35:52;;;;;;;29.52;19.05;;;11.00;99.90;;;;;;4982116;28;20042;-63
2022/10/13 00:38:20;;;;;;;22.42;14.77;;;11.00;99.90;;;;;;5001609;28;20121;-63
2022/10/13 00:40:52;;;;;;;35.00;18.13;;;11.10;99.90;;;;;;4985228;28;20044;-64
2022/10/13 00:43:24;;;;;;;26.02;15.60;;;11.10;99.90;;;;;;4988966;28;20038;-64
2022/10/13 00:45:50;;;;;;;32.63;16.70;;;11.00;99.90;;;;;;4984473;28;20613;-66
2022/10/13 00:48:29;;;;;;;29.02;16.25;;;11.00;99.90;;;;;;4987425;28;20639;-65
2022/10/13 00:50:57;;;;;;;28.98;16.20;;;11.00;99.90;;;;;;4972654;28;20500;-63
2022/10/13 00:53:28;;;;;;;27.52;17.60;;;11.00;99.90;;;;;;4990483;28;20415;-63
2022/10/13 00:55:54;;;;;;;27.08;16.80;;;11.00;99.90;;;;;;4966846;28;20042;-62
2022/10/13 00:58:22;;;;;;;27.77;16.52;;;11.00;99.90;;;;;;4979811;28;20116;-67
2022/10/13 01:00:49;;;;;;;26.42;16.25;;;11.00;99.90;;;;;;4979974;28;20061;-63
2022/10/13 01:03:19;;;;;;;32.80;18.02;;;11.00;99.90;;;;;;4976343;28;20042;-64
2022/10/13 01:05:46;;;;;;;24.75;16.13;;;11.00;99.90;;;;;;4965738;28;20472;-63
2022/10/13 01:08:14;;;;;;;26.13;17.73;;;11.00;99.90;;;;;;4952276;28;20038;-63
2022/10/13 01:11:01;;;;;;;28.67;17.52;;;11.00;99.90;;;;;;4970502;28;20544;-66
2022/10/13 01:13:44;;;;;;;24.88;14.75;;;11.00;99.90;;;;;;4975106;28;20601;-62
2022/10/13 01:16:50;;;;;;;25.60;16.20;;;11.00;99.90;;;;;;4947462;28;20035;-63
2022/10/13 01:19:37;;;;;;;29.88;16.10;;;10.90;99.90;;;;;;4976631;28;20777;-62
2022/10/13 01:22:44;;;;;;;25.25;16.20;;;10.90;99.90;;;;;;4973432;28;20456;-65
2022/10/13 01:25:09;;;;;;;29.65;15.63;;;10.90;99.90;;;;;;4971510;28;20046;-64
2022/10/13 01:27:35;;;;;;;32.28;18.27;;;10.90;99.90;;;;;;4978077;28;20445;-62
2022/10/13 01:30:05;;;;;;;31.50;18.77;;;10.90;99.90;;;;;;4954947;28;20111;-63
2022/10/13 01:32:53;;;;;;;32.08;16.58;;;11.00;99.90;;;;;;4974671;28;20038;-63
2022/10/13 01:35:27;;;;;;;26.60;16.05;;;11.00;99.90;;;;;;4955892;28;20200;-62
2022/10/13 01:38:12;;;;;;;24.35;15.63;;;11.00;99.90;;;;;;4970428;28;20528;-66
2022/10/13 01:40:44;;;;;;;30.05;16.23;;;11.00;99.90;;;;;;4970672;28;20042;-63
2022/10/13 01:43:16;;;;;;;26.98;16.55;;;11.00;99.90;;;;;;4972384;28;20039;-64
2022/10/13 01:46:06;;;;;;;30.10;17.05;;;11.00;99.90;;;;;;4964726;28;20081;-65
2022/10/13 01:48:34;;;;;;;25.45;15.98;;;11.00;99.90;;;;;;4988792;28;20038;-62
2022/10/13 01:51:00;;;;;;;26.65;15.50;;;11.00;99.90;;;;;;4962410;28;20049;-62
2022/10/13 01:53:27;;;;;;;28.63;16.50;;;11.00;99.90;;;;;;4990559;28;20037;-63
2022/10/13 01:55:57;;;;;;;27.27;17.15;;;11.00;99.90;;;;;;4993495;28;20074;-63
2022/10/13 01:58:25;;;;;;;23.58;15.68;;;11.00;99.90;;;;;;4967037;28;20394;-64
2022/10/13 02:01:12;;;;;;;26.75;16.00;;;11.00;99.90;;;;;;4980892;28;20302;-65
2022/10/13 02:03:50;;;;;;;23.75;15.43;;;11.00;99.90;;;;;;4986233;28;20460;-63
2022/10/13 02:06:22;;;;;;;28.80;16.88;;;11.00;99.90;;;;;;4968515;28;20054;-64
2022/10/13 02:09:09;;;;;;;26.10;15.18;;;11.00;99.90;;;;;;4984570;28;20381;-62
2022/10/13 02:11:37;;;;;;;25.98;14.80;;;11.00;99.90;;;;;;4979168;28;20398;-65
2022/10/13 02:14:17;;;;;;;28.42;15.43;;;11.00;99.90;;;;;;4988470;28;20095;-63
2022/10/13 02:16:45;;;;;;;27.08;15.57;;;11.00;99.90;;;;;;4984632;28;20042;-65
2022/10/13 02:19:16;;;;;;;30.20;16.88;;;11.00;99.90;;;;;;4965596;28;20046;-66
2022/10/13 02:21:42;;;;;;;21.88;16.02;;;11.00;99.90;;;;;;4970730;28;20579;-63
2022/10/13 02:24:08;;;;;;;26.08;15.52;;;11.00;99.90;;;;;;4979299;28;20038;-63
2022/10/13 02:26:37;;;;;;;22.73;15.60;;;11.00;99.90;;;;;;4979772;28;20108;-65
2022/10/13 02:29:15;;;;;;;27.90;16.08;;;11.00;99.90;;;;;;4987232;28;20077;-66
2022/10/13 02:31:42;;;;;;;29.45;16.67;;;11.00;99.90;;;;;;4988181;28;20306;-65
2022/10/13 02:34:08;;;;;;;26.45;16.45;;;11.00;99.90;;;;;;4988779;28;20053;-64
2022/10/13 02:36:36;;;;;;;24.63;15.70;;;11.00;99.90;;;;;;4989092;28;20390;-62
2022/10/13 02:39:03;;;;;;;25.63;17.40;;;11.00;99.90;;;;;;5004018;28;20046;-63
2022/10/13 02:41:29;;;;;;;28.98;15.45;;;11.00;99.90;;;;;;5006095;28;20578;-61
2022/10/13 02:43:54;;;;;;;25.83;15.45;;;11.00;99.90;;;;;;4994828;28;20045;-62
2022/10/13 02:46:20;;;;;;;25.17;14.65;;;11.00;99.90;;;;;;4995567;28;20544;-64
2022/10/13 02:48:46;;;;;;;21.88;14.80;;;11.00;99.90;;;;;;4976838;28;20042;-63
2022/10/13 02:51:12;;;;;;;27.52;15.57;;;10.90;99.90;;;;;;4959113;28;20397;-64
2022/10/13 02:53:38;;;;;;;27.58;16.00;;;10.90;99.90;;;;;;4981602;28;20528;-61
2022/10/13 02:56:04;;;;;;;25.25;15.77;;;10.90;99.90;;;;;;4978837;28;20042;-62
2022/10/13 02:58:29;;;;;;;26.33;15.43;;;10.90;99.90;;;;;;4977140;28;20050;-62
2022/10/13 03:01:13;;;;;;;25.13;15.05;;;10.90;99.90;;;;;;4979031;28;20042;-62
2022/10/13 03:03:39;;;;;;;24.55;15.50;;;11.00;99.90;;;;;;4983302;28;20288;-63
2022/10/13 03:06:06;;;;;;;24.45;15.25;;;11.00;99.90;;;;;;4967198;28;20069;-63
2022/10/13 03:08:33;;;;;;;31.17;16.23;;;11.00;99.90;;;;;;4974073;28;20046;-62
2022/10/13 03:10:58;;;;;;;23.85;15.63;;;11.00;99.90;;;;;;4981575;28;20057;-62
2022/10/13 03:13:24;;;;;;;26.13;17.33;;;11.00;99.90;;;;;;4981792;28;20046;-63
2022/10/13 03:15:50;;;;;;;23.42;16.08;;;11.00;99.90;;;;;;4981107;28;20065;-64
2022/10/13 03:18:16;;;;;;;25.58;16.83;;;11.00;99.90;;;;;;4982732;28;20042;-63
2022/10/13 03:20:42;;;;;;;27.70;14.27;;;11.10;99.90;;;;;;4974563;28;20101;-61
2022/10/13 03:23:08;;;;;;;26.83;17.50;;;11.10;99.90;;;;;;4987734;28;20038;-62
2022/10/13 03:25:34;;;;;;;25.35;16.55;;;11.10;99.90;;;;;;4984521;28;20579;-61
2022/10/13 03:28:00;;;;;;;26.52;16.23;;;11.10;99.90;;;;;;4998037;28;20364;-62
2022/10/13 03:30:25;;;;;;;31.48;17.23;;;11.10;99.90;;;;;;4971577;28;20313;-64
2022/10/13 03:32:51;;;;;;;28.13;15.82;;;11.10;99.90;;;;;;4988567;28;20498;-62
2022/10/13 03:35:17;;;;;;;26.08;17.13;;;11.10;99.90;;;;;;4964658;28;20046;-63
2022/10/13 03:37:43;;;;;;;25.10;17.05;;;11.10;99.90;;;;;;4973958;28;20070;-61
2022/10/13 03:40:10;;;;;;;22.75;14.77;;;11.10;99.90;;;;;;4984043;28;20051;-62
2022/10/13 03:42:36;;;;;;;21.52;14.60;;;11.10;99.90;;;;;;4957718;28;20048;-64
2022/10/13 03:45:03;;;;;;;25.30;17.02;;;11.10;99.90;;;;;;4993763;28;20176;-62
2022/10/13 03:47:29;;;;;;;30.02;19.35;;;11.10;99.90;;;;;;4986889;28;20489;-61
2022/10/13 03:49:55;;;;;;;28.42;17.73;;;11.10;99.90;;;;;;4974136;28;20069;-64
2022/10/13 03:52:21;;;;;;;27.67;17.35;;;11.10;99.90;;;;;;4985975;28;20034;-62
2022/10/13 03:54:47;;;;;;;26.73;16.45;;;11.10;99.90;;;;;;4989305;28;20046;-61
2022/10/13 03:57:13;;;;;;;28.33;18.20;;;11.10;99.90;;;;;;4994058;28;20057;-62
2022/10/13 03:59:40;;;;;;;30.08;18.10;;;11.10;99.90;;;;;;4972441;28;20042;-61
2022/10/13 04:02:06;;;;;;;28.33;18.65;;;11.10;99.90;;;;;;4988294;28;20491;-62
2022/10/13 04:04:32;;;;;;;38.60;20.10;;;11.20;99.90;;;;;;4966869;28;20711;-62
2022/10/13 04:06:58;;;;;;;23.98;16.35;;;11.10;99.90;;;;;;4974366;28;20046;-61
2022/10/13 04:09:24;;;;;;;23.70;17.05;;;11.10;99.90;;;;;;4988791;28;20047;-62
2022/10/13 04:11:51;;;;;;;25.65;17.83;;;11.10;99.90;;;;;;4988358;28;20049;-64
2022/10/13 04:14:17;;;;;;;28.38;18.48;;;11.10;99.90;;;;;;4982075;28;20070;-62
2022/10/13 04:16:43;;;;;;;31.13;19.23;;;11.20;99.90;;;;;;4947178;28;20050;-64
2022/10/13 04:19:14;;;;;;;29.90;18.05;;;11.10;99.90;;;;;;4962753;28;20038;-62
2022/10/13 04:21:41;;;;;;;29.75;18.88;;;11.10;99.90;;;;;;4958817;28;20065;-62
2022/10/13 04:24:09;;;;;;;28.48;20.13;;;11.10;99.90;;;;;;4946775;28;20297;-61
2022/10/13 04:26:35;;;;;;;24.42;17.67;;;11.10;99.90;;;;;;4964291;28;20042;-63
2022/10/13 04:29:03;;;;;;;29.13;18.23;;;11.10;99.90;;;;;;4966562;28;20042;-62
2022/10/13 04:31:29;;;;;;;31.02;19.98;;;11.10;99.90;;;;;;4948768;28;21904;-63
2022/10/13 04:33:55;;;;;;;31.45;19.67;;;11.20;99.90;;;;;;4965013;28;20050;-62
2022/10/13 04:36:21;;;;;;;33.75;19.20;;;11.20;99.90;;;;;;4963019;28;20101;-65
2022/10/13 04:38:47;;;;;;;33.25;21.48;;;11.10;99.90;;;;;;4981594;28;20530;-61
2022/10/13 04:41:15;;;;;;;36.95;20.67;;;11.20;99.90;;;;;;4984848;28;20053;-62
2022/10/13 04:43:41;;;;;;;29.33;19.50;;;11.20;99.90;;;;;;4979178;28;20452;-61
2022/10/13 04:48:48;;;;;;;36.33;21.23;;;11.10;99.90;;;;;;4947788;28;20058;-66
2022/10/13 04:51:16;;;;;;;30.33;20.27;;;11.10;99.90;;;;;;4917981;28;20626;-66
2022/10/13 04:53:42;;;;;;;35.47;21.63;;;11.10;99.90;;;;;;4938770;28;20568;-65
2022/10/13 04:56:10;;;;;;;30.65;19.73;;;11.10;99.90;;;;;;4947641;28;20089;-65
2022/10/13 04:58:37;;;;;;;38.63;22.05;;;11.10;99.90;;;;;;4933901;28;20062;-64
2022/10/13 05:01:04;;;;;;;30.60;20.88;;;11.10;99.90;;;;;;4929164;28;20125;-66
2022/10/13 05:03:30;;;;;;;28.75;19.65;;;11.10;99.90;;;;;;4943419;28;20047;-64
2022/10/13 05:05:56;;;;;;;31.73;20.65;;;11.10;99.90;;;;;;4941336;28;20035;-64
2022/10/13 05:08:22;;;;;;;34.20;21.17;;;11.10;99.90;;;;;;4948140;28;20122;-64
2022/10/13 05:11:00;;;;;;;36.50;21.73;;;11.10;99.90;;;;;;4926227;28;20130;-65
2022/10/13 05:13:27;;;;;;;32.47;22.08;;;11.10;99.90;;;;;;4928874;28;20426;-66
2022/10/13 05:15:52;;;;;;;34.00;21.45;;;11.10;99.90;;;;;;4937326;28;20058;-65
2022/10/13 05:18:18;;;;;;;31.92;23.30;;;11.10;99.90;;;;;;4922243;28;20051;-64
2022/10/13 05:20:45;;;;;;;30.65;21.10;;;11.10;99.90;;;;;;4912656;28;20125;-65
2022/10/13 05:23:12;;;;;;;35.05;22.17;;;11.10;99.90;;;;;;4914270;28;20537;-63
2022/10/13 05:25:38;;;;;;;37.45;21.85;;;11.10;99.90;;;;;;4936262;29;20070;-63
2022/10/13 05:28:05;;;;;;;35.83;22.40;;;11.10;99.90;;;;;;4947148;28;20517;-64
2022/10/13 05:30:31;;;;;;;45.17;26.13;;;11.10;99.90;;;;;;4929573;28;20493;-64
2022/10/13 05:32:57;;;;;;;35.63;23.27;;;11.10;99.90;;;;;;4938880;28;20046;-64
2022/10/13 05:35:24;;;;;;;34.42;22.92;;;11.10;99.90;;;;;;4954161;28;20413;-66
2022/10/13 05:37:49;;;;;;;31.45;22.80;;;11.10;99.90;;;;;;4956153;28;20039;-64
2022/10/13 05:40:15;;;;;;;44.03;26.38;;;11.10;99.90;;;;;;4934116;28;20077;-65
2022/10/13 05:42:41;;;;;;;36.15;25.00;;;11.10;99.90;;;;;;4926714;28;20041;-67
2022/10/13 05:45:10;;;;;;;39.30;25.48;;;11.10;99.90;;;;;;4909553;28;20510;-64
2022/10/13 05:47:36;;;;;;;38.13;24.48;;;11.20;99.90;;;;;;4950484;28;20405;-65
2022/10/13 05:50:01;;;;;;;37.53;25.90;;;11.20;99.90;;;;;;4936037;28;20035;-64
2022/10/13 05:52:30;;;;;;;37.38;24.77;;;11.20;99.90;;;;;;4936127;28;20046;-64
2022/10/13 05:54:59;;;;;;;39.05;24.75;;;11.20;99.90;;;;;;4930861;28;20035;-63
2022/10/13 05:57:39;;;;;;;37.92;25.92;;;11.20;99.90;;;;;;4942856;28;20452;-63
2022/10/13 06:00:12;;;;;;;38.45;25.58;;;11.20;99.90;;;;;;4939428;28;20032;-64
2022/10/13 06:02:55;;;;;;;40.53;25.63;;;11.20;99.90;;;;;;4919395;28;20042;-62
2022/10/13 06:05:25;;;;;;;39.85;25.30;;;11.20;99.90;;;;;;4930694;28;20055;-66
2022/10/13 06:07:51;;;;;;;44.58;26.95;;;11.30;99.90;;;;;;4909448;28;20043;-66
2022/10/13 06:10:17;;;;;;;39.08;26.58;;;11.20;99.90;;;;;;4920431;28;20522;-64
2022/10/13 06:12:43;;;;;;;44.50;26.58;;;11.20;99.90;;;;;;4916440;28;20051;-63
2022/10/13 06:15:09;;;;;;;40.25;26.50;;;11.30;99.90;;;;;;4935186;28;20054;-65
2022/10/13 06:17:36;;;;;;;46.55;28.25;;;11.30;99.90;;;;;;4920296;29;20114;-66
2022/10/13 06:20:05;;;;;;;41.80;27.02;;;11.30;99.90;;;;;;4938742;28;20051;-66
2022/10/13 06:22:32;;;;;;;42.38;28.23;;;11.30;99.90;;;;;;4924894;29;20122;-64
2022/10/13 06:24:58;;;;;;;42.28;26.20;;;11.30;99.90;;;;;;4919456;29;20075;-64
2022/10/13 06:27:23;;;;;;;34.63;23.60;;;11.30;99.90;;;;;;4923877;28;20090;-65
2022/10/13 06:29:49;;;;;;;40.45;27.27;;;11.30;99.90;;;;;;4928166;28;20641;-66
2022/10/13 06:32:15;;;;;;;38.53;26.45;;;11.30;99.90;;;;;;4903317;28;20071;-65
2022/10/13 06:34:40;;;;;;;39.30;25.77;;;11.30;99.90;;;;;;4934031;28;20459;-64
2022/10/13 06:37:06;;;;;;;41.45;27.95;;;11.30;99.90;;;;;;4938928;28;20439;-64
2022/10/13 06:39:32;;;;;;;37.72;24.95;;;11.40;99.90;;;;;;4934218;29;20514;-66
2022/10/13 06:41:58;;;;;;;40.55;27.05;;;11.40;99.90;;;;;;4904338;28;20044;-64
2022/10/13 06:44:23;;;;;;;38.65;26.27;;;11.40;99.90;;;;;;4948459;28;20057;-67
2022/10/13 06:46:49;;;;;;;37.20;23.13;;;11.50;99.90;;;;;;4952435;28;20035;-65
2022/10/13 06:49:15;;;;;;;38.88;24.98;;;11.50;99.90;;;;;;4932644;28;20058;-63
2022/10/13 06:51:41;;;;;;;37.80;25.30;;;11.50;99.90;;;;;;4928108;29;20490;-66
2022/10/13 06:54:06;;;;;;;41.83;27.05;;;11.50;99.90;;;;;;4945813;28;20135;-64
2022/10/13 06:56:32;;;;;;;35.38;23.15;;;11.50;99.90;;;;;;4932531;28;20098;-64
2022/10/13 06:58:58;;;;;;;44.67;27.73;;;11.60;99.90;;;;;;4908272;29;20039;-66
2022/10/13 07:01:23;;;;;;;39.22;27.73;;;11.60;99.90;;;;;;4915556;29;20055;-64
2022/10/13 07:03:50;;;;;;;38.42;28.40;;;11.60;99.90;;;;;;4930739;29;20053;-67
2022/10/13 07:06:16;;;;;;;41.97;28.10;;;11.70;99.90;;;;;;4934055;29;20039;-65
2022/10/13 07:08:42;;;;;;;49.08;31.17;;;11.70;99.90;;;;;;4932669;28;20051;-64
2022/10/13 07:11:11;;;;;;;42.67;29.10;;;11.70;99.90;;;;;;4932666;28;20462;-66
2022/10/13 07:13:38;;;;;;;40.92;27.98;;;11.70;99.90;;;;;;4942637;28;20319;-64
2022/10/13 07:16:05;;;;;;;46.10;28.95;;;11.80;99.90;;;;;;4946263;28;20069;-65
2022/10/13 07:18:31;;;;;;;44.15;30.00;;;11.80;99.90;;;;;;4942256;28;20048;-65
2022/10/13 07:20:58;;;;;;;47.83;30.00;;;11.90;99.90;;;;;;4939883;28;20074;-65
2022/10/13 07:23:24;;;;;;;48.90;30.00;;;12.00;99.90;;;;;;4948098;28;20055;-64
2022/10/13 07:25:50;;;;;;;44.80;30.92;;;12.00;99.90;;;;;;4941731;28;20034;-65
2022/10/13 07:28:16;;;;;;;43.20;29.13;;;12.00;99.90;;;;;;4955421;28;20400;-64
2022/10/13 07:30:41;;;;;;;50.40;32.10;;;12.00;99.90;;;;;;4954081;28;20046;-63
2022/10/13 07:33:07;;;;;;;49.40;31.52;;;12.10;99.90;;;;;;4931886;28;20119;-64
2022/10/13 07:35:33;;;;;;;49.80;32.67;;;12.10;99.90;;;;;;4934120;28;20145;-64
2022/10/13 07:37:59;;;;;;;51.35;32.58;;;12.10;99.90;;;;;;4931767;29;20043;-64
2022/10/13 07:40:25;;;;;;;51.70;32.15;;;12.10;99.90;;;;;;4932307;29;20055;-64
2022/10/13 07:42:51;;;;;;;50.40;33.28;;;12.20;99.90;;;;;;4921386;29;20615;-66
2022/10/13 07:45:17;;;;;;;42.42;28.45;;;12.20;99.90;;;;;;4943283;28;20102;-65
2022/10/13 07:47:42;;;;;;;51.15;31.80;;;12.20;99.90;;;;;;4933224;29;20102;-66
2022/10/13 07:50:09;;;;;;;47.05;29.50;;;12.20;99.90;;;;;;4934837;28;20039;-65
2022/10/13 07:52:35;;;;;;;45.92;31.25;;;12.20;99.90;;;;;;4914330;29;20062;-63
2022/10/13 07:55:01;;;;;;;49.03;31.35;;;12.30;99.90;;;;;;4935891;28;20491;-65
2022/10/13 07:57:27;;;;;;;45.72;30.42;;;12.30;99.90;;;;;;4922609;29;20032;-66
2022/10/13 07:59:52;;;;;;;49.45;31.27;;;12.30;99.90;;;;;;4946551;28;21300;-66
2022/10/13 08:02:18;;;;;;;46.60;32.85;;;12.30;99.90;;;;;;4930745;28;20039;-64
2022/10/13 08:04:44;;;;;;;51.80;31.88;;;12.40;99.90;;;;;;4945962;28;20074;-64
2022/10/13 08:07:10;;;;;;;45.60;31.67;;;12.40;99.90;;;;;;4936651;28;20367;-66
2022/10/13 08:09:36;;;;;;;45.30;30.48;;;12.40;99.90;;;;;;4949665;28;20051;-66
2022/10/13 08:12:02;;;;;;;47.95;32.83;;;12.50;99.90;;;;;;4944998;28;20046;-64
2022/10/13 08:14:29;;;;;;;48.40;32.67;;;12.50;99.90;;;;;;4920216;28;20222;-66
2022/10/13 08:16:55;;;;;;;47.33;32.55;;;12.50;99.90;;;;;;4913709;28;20054;-64
2022/10/13 08:19:21;;;;;;;45.53;31.98;;;12.50;99.90;;;;;;4914961;28;20051;-66
2022/10/13 08:21:48;;;;;;;50.42;32.60;;;12.50;99.90;;;;;;4925775;28;20069;-64
2022/10/13 08:24:16;;;;;;;49.47;33.40;;;12.50;99.90;;;;;;4938227;28;20039;-64
2022/10/13 08:26:43;;;;;;;52.03;34.05;;;12.60;99.90;;;;;;4925633;29;20039;-64
2022/10/13 08:29:09;;;;;;;57.92;32.85;;;12.60;99.90;;;;;;4913572;28;20047;-65
2022/10/13 08:31:35;;;;;;;59.78;36.10;;;12.60;99.90;;;;;;4951299;28;20043;-64
2022/10/13 08:34:01;;;;;;;50.08;34.42;;;12.70;99.90;;;;;;4943400;29;20059;-64
2022/10/13 08:36:27;;;;;;;56.50;36.03;;;12.70;99.90;;;;;;4953072;28;20109;-64
2022/10/13 08:38:52;;;;;;;53.60;34.17;;;12.70;99.90;;;;;;4951716;28;20047;-65
2022/10/13 08:41:28;;;;;;;48.95;32.42;;;12.80;99.90;;;;;;4935985;28;20123;-65
2022/10/13 08:44:23;;;;;;;52.38;33.35;;;12.80;99.90;;;;;;4938969;28;20051;-66
2022/10/13 08:47:00;;;;;;;57.17;34.65;;;12.90;99.90;;;;;;4944531;28;20565;-65
2022/10/13 08:49:28;;;;;;;49.65;34.38;;;12.90;99.90;;;;;;4931068;29;20130;-64
2022/10/13 08:51:55;;;;;;;49.75;32.60;;;12.90;99.90;;;;;;4927544;29;20113;-64
2022/10/13 08:54:24;;;;;;;55.63;34.67;;;13.00;99.90;;;;;;4916411;28;20043;-64
2022/10/13 08:56:51;;;;;;;48.28;32.70;;;13.10;99.90;;;;;;4939288;28;20036;-65
2022/10/13 08:59:18;;;;;;;55.72;35.95;;;13.10;99.90;;;;;;4925075;29;20395;-66
2022/10/13 09:01:50;;;;;;;51.80;33.08;;;13.10;99.90;;;;;;4923774;29;20048;-64
2022/10/13 09:04:39;;;;;;;53.50;33.05;;;13.20;99.90;;;;;;4923837;29;20732;-64
2022/10/13 09:07:09;;;;;;;54.97;34.42;;;13.20;99.90;;;;;;4922330;29;20123;-66
2022/10/13 09:09:36;;;;;;;47.35;32.70;;;13.30;99.90;;;;;;4907003;29;20484;-64
2022/10/13 09:12:03;;;;;;;50.47;31.00;;;13.30;99.90;;;;;;4939488;28;20035;-64
2022/10/13 09:14:31;;;;;;;45.35;31.08;;;13.30;99.90;;;;;;4924418;29;20047;-64
2022/10/13 09:17:19;;;;;;;43.05;30.92;;;13.40;99.90;;;;;;4920241;29;20056;-66
2022/10/13 09:19:56;;;;;;;53.40;32.70;;;13.40;99.90;;;;;;4928709;28;20492;-65
2022/10/13 09:22:24;;;;;;;48.40;30.63;;;13.50;99.90;;;;;;4922354;29;20035;-67
2022/10/13 09:25:05;;;;;;;47.22;29.73;;;13.50;99.90;;;;;;4920219;29;20523;-64
2022/10/13 09:27:43;;;;;;;47.00;29.75;;;13.60;99.90;;;;;;4923725;29;20395;-64
2022/10/13 09:30:29;;;;;;;41.28;27.67;;;13.60;99.90;;;;;;4916027;29;20486;-65
2022/10/13 09:33:20;;;;;;;44.05;29.90;;;13.60;99.90;;;;;;4927659;28;20043;-65
2022/10/13 09:36:05;;;;;;;49.28;30.25;;;13.60;99.90;;;;;;4922098;29;20222;-63
2022/10/13 09:38:31;;;;;;;46.90;30.58;;;13.60;99.90;;;;;;4919643;29;20134;-65
2022/10/13 09:41:17;;;;;;;45.35;29.83;;;13.60;99.90;;;;;;4914954;29;20206;-66
2022/10/13 09:43:59;;;;;;;41.15;27.25;;;13.70;99.90;;;;;;4902312;29;20055;-66
2022/10/13 09:46:44;;;;;;;40.25;28.30;;;13.70;99.90;;;;;;4923968;28;20492;-65
2022/10/13 09:49:38;;;;;;;41.33;26.40;;;13.70;99.90;;;;;;4926505;28;20118;-66
2022/10/13 09:52:04;;;;;;;;;;;13.70;99.90;;;;;;4920589;28;20036;-67
2022/10/13 09:54:38;;;;;;;38.75;25.70;;;13.70;99.90;;;;;;4927185;28;20403;-66
2022/10/13 09:57:37;;;;;;;45.67;28.58;;;13.70;99.90;;;;;;4926768;28;20774;-67
2022/10/13 10:00:16;;;;;;;41.67;27.00;;;13.70;99.90;;;;;;4910025;28;20503;-64
2022/10/13 10:03:13;;;;;;;45.05;27.38;;;13.80;99.90;;;;;;4910846;28;20130;-66
2022/10/13 10:05:54;;;;;;;41.90;26.70;;;13.80;99.90;;;;;;4903685;28;20043;-63
2022/10/13 10:08:38;;;;;;;40.55;26.90;;;13.90;99.90;;;;;;4919535;28;20039;-66
2022/10/13 10:11:11;;;;;;;36.30;25.30;;;13.90;99.90;;;;;;4924099;28;20097;-66
2022/10/13 10:13:36;;;;;;;35.70;24.40;;;14.30;99.90;;;;;;4938994;28;20046;-64
2022/10/13 10:16:21;;;;;;;37.65;26.38;;;14.00;99.90;;;;;;4939863;28;20039;-66
2022/10/13 10:18:57;;;;;;;;;;;14.00;99.90;;;;;;4936741;28;20070;-65
2022/10/13 10:21:32;;;;;;;38.47;25.50;;;14.10;99.90;;;;;;4929108;29;19940;-64
2022/10/13 10:24:34;;;;;;;42.00;26.77;;;14.10;99.90;;;;;;4937135;28;20122;-64
2022/10/13 10:27:25;;;;;;;36.60;25.75;;;14.20;99.90;;;;;;4952344;28;20039;-65
2022/10/13 10:30:04;;;;;;;37.65;25.15;;;14.20;99.90;;;;;;4936364;28;20170;-64
2022/10/13 10:32:48;;;;;;;40.28;26.00;;;14.30;99.90;;;;;;4939000;28;20643;-66
2022/10/13 10:35:48;;;;;;;36.58;24.05;;;14.30;99.90;;;;;;4940881;28;20047;-64
2022/10/13 10:38:14;;;;;;;36.15;26.60;;;14.30;99.90;;;;;;4921393;28;20050;-64
2022/10/13 10:41:31;;;;;;;35.35;24.60;;;14.40;99.90;;;;;;4943170;28;20485;-63
2022/10/13 10:44:40;;;;;;;33.83;23.30;;;14.40;99.90;;;;;;4846439;29;20082;-65
2022/10/13 10:47:38;;;;;;;35.65;24.02;;;14.40;99.90;;;;;;4801618;23;20053;-82
2022/10/13 10:50:06;;;;;;;33.28;23.67;;;14.50;99.90;;;;;;5020945;28;20045;-83
2022/10/13 10:52:46;;;;;;;30.50;21.88;;;14.60;99.90;;;;;;4994821;28;20045;-83
2022/10/13 10:55:50;;;;;;;35.60;23.60;;;14.60;99.90;;;;;;5003139;28;20041;-84
2022/10/13 10:58:32;;;;;;;25.15;20.08;;;14.60;99.90;;;;;;4991759;28;20030;-83
2022/10/13 11:04:48;;;;;;;28.77;19.80;;;14.70;99.90;;;;;;5002801;28;20555;-80
2022/10/13 11:07:22;;;;;;;27.30;20.17;;;14.60;99.90;;;;;;4991179;28;20054;-82
2022/10/13 11:09:49;;;;;;;29.08;17.67;;;14.70;99.90;;;;;;4984020;28;20045;-82
2022/10/13 11:12:43;;;;;;;28.00;17.73;;;14.70;99.90;;;;;;4989288;28;20042;-82
2022/10/13 11:15:10;;;;;;;;;;;14.70;99.90;;;;;;4981760;28;20509;-83
2022/10/13 11:17:38;;;;;;;24.60;17.52;;;14.70;99.90;;;;;;4987719;28;19918;-81
2022/10/13 11:20:19;;;;;;;23.90;17.85;;;14.70;99.90;;;;;;5008364;28;20045;-81
2022/10/13 11:22:57;;;;;;;27.77;17.17;;;14.70;99.90;;;;;;4984879;28;20446;-84
2022/10/13 11:26:04;;;;;;;;;;;;;;;;;;;;;
2022/10/13 11:28:42;;;;;;;22.33;14.70;;;14.20;99.90;;;;;;5004285;23;20043;-62
2022/10/13 11:31:13;;;;;;;19.85;14.25;;;14.90;99.90;;;;;;5020335;28;20496;-60
2022/10/13 11:33:39;;;;;;;23.55;15.82;;;14.90;99.90;;;;;;5023216;28;20045;-62
2022/10/13 11:36:30;;;;;;;19.52;13.50;;;14.90;99.90;;;;;;5022474;28;20074;-62
2022/10/13 11:39:24;;;;;;;17.95;13.77;;;14.90;99.90;;;;;;5018983;28;20526;-61
2022/10/13 11:41:53;;;;;;;21.17;13.43;;;15.00;99.90;;;;;;5019908;28;20071;-61
2022/10/13 11:44:46;;;;;;;20.77;13.13;;;15.00;99.90;;;;;;5016198;28;20037;-62
2022/10/13 11:47:40;;;;;;;17.83;12.55;;;15.00;99.90;;;;;;5013520;28;20045;-62
2022/10/13 11:50:16;;;;;;;18.48;12.40;;;15.10;99.90;;;;;;5013778;28;20034;-61
2022/10/13 11:53:09;;;;;;;18.08;12.35;;;15.10;99.90;;;;;;5011220;28;20039;-60
2022/10/13 11:55:40;;;;;;;18.15;11.80;;;15.20;99.90;;;;;;5008946;28;20128;-62
2022/10/13 11:58:18;;;;;;;17.48;10.80;;;15.10;99.90;;;;;;5008104;28;20041;-61
2022/10/13 12:01:10;;;;;;;16.40;9.52;;;15.10;99.90;;;;;;5011649;28;20052;-62
2022/10/13 12:03:42;;;;;;;16.10;9.07;;;15.20;99.90;;;;;;5008081;28;20029;-59
2022/10/13 12:06:32;;;;;;;13.57;8.23;;;15.20;99.90;;;;;;5009600;28;20065;-60
2022/10/13 12:09:25;;;;;;;10.38;5.45;;;15.30;99.90;;;;;;5010563;28;20356;-62
2022/10/13 12:12:06;;;;;;;7.82;3.60;;;15.30;99.90;;;;;;5010947;28;20826;-61
2022/10/13 12:14:37;;;;;;;13.23;3.83;;;15.20;99.90;;;;;;5015356;28;20124;-60
2022/10/13 12:17:18;;;;;;;7.82;3.95;;;15.20;99.90;;;;;;5012641;28;20072;-61
2022/10/13 12:19:44;;;;;;;13.18;3.78;;;15.20;99.90;;;;;;5015544;28;20643;-60
2022/10/13 12:22:13;;;;;;;9.68;4.07;;;15.30;99.90;;;;;;5018900;28;20072;-61
2022/10/13 12:24:39;;;;;;;7.65;3.45;;;15.20;99.90;;;;;;5014719;28;20049;-61
2022/10/13 12:27:20;;;;;;;7.07;3.38;;;15.20;99.90;;;;;;5028189;28;20111;-62
2022/10/13 12:29:46;;;;;;;8.55;4.03;;;15.20;99.90;;;;;;5047569;28;20400;-62
2022/10/13 12:32:47;;;;;;;7.03;3.42;;;15.20;99.90;;;;;;5046742;28;20041;-61
2022/10/13 12:35:24;;;;;;;8.45;3.80;;;15.20;99.90;;;;;;5040261;28;20496;-61
2022/10/13 12:37:51;;;;;;;6.72;3.65;;;15.20;99.90;;;;;;5045271;28;20052;-62
2022/10/13 12:40:18;;;;;;;6.50;3.95;;;15.20;99.90;;;;;;5046004;28;20037;-61
2022/10/13 12:42:45;;;;;;;8.27;3.22;;;15.30;99.90;;;;;;5050280;28;20086;-60
2022/10/13 12:45:32;;;;;;;6.97;3.28;;;15.30;99.90;;;;;;5047319;28;20403;-61
2022/10/13 12:47:58;;;;;;;9.23;3.65;;;15.30;99.90;;;;;;5052906;28;20036;-60
2022/10/13 12:50:29;;;;;;;12.18;3.92;;;15.40;99.90;;;;;;5048365;28;20391;-62
2022/10/13 12:53:07;;;;;;;9.15;4.38;;;15.40;99.90;;;;;;5040498;28;20366;-61
2022/10/13 12:55:34;;;;;;;13.43;4.00;;;15.50;99.90;;;;;;5042337;28;20055;-61
2022/10/13 12:58:00;;;;;;;9.00;3.42;;;15.50;99.90;;;;;;5048088;28;20037;-62
2022/10/13 13:00:28;;;;;;;10.40;3.78;;;15.50;99.90;;;;;;5043486;28;20521;-62